LICD Airport Information

Runway Information
Runway 08 Length 5906 ft width 148 ft
Elevation 48 ft Threshold 0 ft Heading 81
Runway 26 Length 5906 ft Width 148 ft
Elevation 70 ft Threshold 0 ft Heading 261
Airport Frequencies
Type AFIS Name INFO Frequency 122.1 MHZ
Airport Navaids
Type VOR-DME Name Lampedusa Frequency 108600 KHZ
Type NDB Name Lampedusa Frequency 373 KHZ
Airport Weather Information & NOTAM
ADDS - METARS form results

(2012 UTC 23 February 2019)
Data provider http://aviationweather.gov/metar/data/
 
METAR text: LICD 231950Z 36027KT CAVOK 08/01 Q1012
Conditions at: LICD (LAMPEDUSA ISLAND, IT) observed 1950 UTC 23 February 2019
Temperature: 8.0°C (46°F)
Dewpoint: 1.0°C (34°F) [RH = 61%]
Pressure (altimeter): 29.88 inches Hg (1012.0 mb)
Winds: from the N (360 degrees) at 31 MPH (27 knots; 13.9 m/s)
Visibility: 6 or more miles (10+ km)
Ceiling: ceiling and visibility are OK
Clouds: unknown
Weather: no significant weather observed at this time

Forecast for: LICD (LAMPEDUSA ISLAND, IT)
Text: TAF LICD 231700Z 2318/2418 01018G30KT 9999 SCT020
Forecast period: 1800 UTC 23 February 2019 to 1800 UTC 24 February 2019
Forecast type: FROM: standard forecast or significant change
Winds: from the N (10 degrees) at 21 MPH (18 knots; 9.3 m/s)
gusting to 34 MPH (30 knots; 15.4 m/s)
Visibility: 6 or more miles 10+ km)
Ceiling: at least 12,000 feet AGL
Clouds: scattered clouds at 2000 feet AGL
Weather: no significant weather forecast for this period